createdAt,value
2022-12-17T00:00:30.382Z,101174.16
2022-12-17T00:02:32.274Z,101153.75
2022-12-17T00:04:34.184Z,101171.94
2022-12-17T00:06:35.885Z,101177.94
2022-12-17T00:08:37.845Z,101151.91
2022-12-17T00:10:39.613Z,101161.28
2022-12-17T00:12:41.298Z,101166.44
2022-12-17T00:14:43.491Z,101188.31
2022-12-17T00:16:45.420Z,101166.63
2022-12-17T00:18:47.118Z,101196.50
2022-12-17T00:20:58.675Z,101174.88
2022-12-17T00:23:01.418Z,101158.19
2022-12-17T00:25:03.142Z,101197.91
2022-12-17T00:27:04.998Z,101172.63
2022-12-17T00:29:06.867Z,101194.06
2022-12-17T00:31:10.538Z,101203.34
2022-12-17T00:33:13.291Z,101210.63
2022-12-17T00:35:15.234Z,101186.75
2022-12-17T00:37:16.895Z,101181.59
2022-12-17T00:39:18.655Z,101196.31
2022-12-17T00:41:20.539Z,101198.56
2022-12-17T00:43:22.439Z,101187.75
2022-12-17T00:45:24.335Z,101204.16
2022-12-17T00:47:26.148Z,101215.34
2022-12-17T00:49:27.867Z,101196.59
2022-12-17T00:51:30.027Z,101193.56
2022-12-17T00:53:31.774Z,101215.09
2022-12-17T00:55:33.477Z,101214.72
2022-12-17T00:57:35.428Z,101222.94
2022-12-17T00:59:37.618Z,101223.34
2022-12-17T01:01:39.417Z,101231.84
2022-12-17T01:03:41.477Z,101234.25
2022-12-17T01:05:43.384Z,101184.59
2022-12-17T01:07:45.160Z,101215.28
2022-12-17T01:09:47.019Z,101220.53
2022-12-17T01:11:48.759Z,101213.06
2022-12-17T01:13:50.745Z,101205.19
2022-12-17T01:15:53.880Z,101226.25
2022-12-17T01:17:58.458Z,101195.16
2022-12-17T01:20:00.198Z,101188.88
2022-12-17T01:22:02.112Z,101212.88
2022-12-17T01:24:04.141Z,101236.78
2022-12-17T01:26:05.949Z,101240.59
2022-12-17T01:28:07.760Z,101251.03
2022-12-17T01:30:09.790Z,101225.41
2022-12-17T01:32:11.535Z,101259.78
2022-12-17T01:34:13.426Z,101257.34
2022-12-17T01:36:15.183Z,101222.25
2022-12-17T01:38:19.183Z,101236.66
2022-12-17T01:40:21.083Z,101244.47
2022-12-17T01:42:22.819Z,101271.97
2022-12-17T01:44:54.890Z,101272.16
2022-12-17T01:46:56.757Z,101254.31
2022-12-17T01:48:58.585Z,101244.72
2022-12-17T01:51:00.463Z,101256.09
2022-12-17T01:53:05.399Z,101263.78
2022-12-17T01:55:07.425Z,101236.47
2022-12-17T01:57:09.385Z,101267.00
2022-12-17T01:59:12.455Z,101254.28
2022-12-17T02:01:14.349Z,101269.84
2022-12-17T02:03:17.693Z,101244.19
2022-12-17T02:05:28.122Z,101266.28
2022-12-17T02:07:42.757Z,101254.34
2022-12-17T02:09:56.200Z,101268.03
2022-12-17T02:12:13.321Z,101265.50
2022-12-17T02:14:41.503Z,101242.28
2022-12-17T02:16:51.051Z,101258.72
2022-12-17T02:19:27.738Z,101269.06
2022-12-17T02:21:31.230Z,101266.75
2022-12-17T02:23:47.006Z,101276.19
2022-12-17T02:25:55.164Z,101264.47
2022-12-17T02:27:57.029Z,101268.56
2022-12-17T02:30:05.151Z,101273.53
2022-12-17T02:32:09.046Z,101287.31
2022-12-17T02:34:11.026Z,101253.44
2022-12-17T02:36:12.819Z,101283.19
2022-12-17T02:38:26.061Z,101285.03
2022-12-17T02:40:27.922Z,101284.88
2022-12-17T02:42:31.577Z,101278.03
2022-12-17T02:44:35.397Z,101223.78
2022-12-17T02:46:39.422Z,101291.13
2022-12-17T02:48:41.748Z,101287.84
2022-12-17T02:50:43.891Z,101252.91
2022-12-17T02:52:48.684Z,101281.97
2022-12-17T02:54:50.483Z,101249.66
2022-12-17T02:56:52.346Z,101278.56
2022-12-17T02:58:54.133Z,101265.84
2022-12-17T03:00:55.874Z,101277.88
2022-12-17T03:02:57.798Z,101275.25
2022-12-17T03:05:06.626Z,101259.22
2022-12-17T03:07:21.443Z,101279.56
2022-12-17T03:09:23.283Z,101246.28
2022-12-17T03:11:29.172Z,101266.47
2022-12-17T03:13:30.844Z,101264.09
2022-12-17T03:15:32.679Z,101283.75
2022-12-17T03:17:34.442Z,101274.50
2022-12-17T03:19:37.671Z,101278.50
2022-12-17T03:21:39.511Z,101221.56
2022-12-17T03:23:41.239Z,101236.31
2022-12-17T03:25:42.915Z,101285.63
2022-12-17T03:27:44.755Z,101277.31
2022-12-17T03:29:46.496Z,101257.72
2022-12-17T03:31:48.178Z,101273.75
2022-12-17T03:33:49.938Z,101271.25
2022-12-17T03:35:53.659Z,101278.84
2022-12-17T03:37:55.330Z,101276.41
2022-12-17T03:39:57.055Z,101279.97
2022-12-17T03:41:59.164Z,101260.38
2022-12-17T03:44:00.847Z,101291.03
2022-12-17T03:46:02.754Z,101287.72
2022-12-17T03:48:06.714Z,101286.13
2022-12-17T03:50:08.927Z,101281.88
2022-12-17T03:52:10.735Z,101262.25
2022-12-17T03:54:12.517Z,101246.00
2022-12-17T03:56:14.219Z,101266.41
2022-12-17T03:58:16.018Z,101291.22
2022-12-17T04:00:17.785Z,101288.72
2022-12-17T04:02:19.691Z,101284.19
2022-12-17T04:04:21.649Z,101261.22
2022-12-17T04:06:23.517Z,101282.44
2022-12-17T04:08:25.200Z,101287.47
2022-12-17T04:10:27.001Z,101281.00
2022-12-17T04:12:28.675Z,101283.50
2022-12-17T04:14:30.352Z,101278.31
2022-12-17T04:16:32.114Z,101304.69
2022-12-17T04:18:33.862Z,101229.41
2022-12-17T04:20:35.603Z,101297.63
2022-12-17T04:22:37.346Z,101287.56
2022-12-17T04:24:39.049Z,101314.75
2022-12-17T04:26:40.759Z,101302.97
2022-12-17T04:28:42.674Z,101304.69
2022-12-17T04:30:44.411Z,101277.16
2022-12-17T04:32:46.135Z,101280.88
2022-12-17T04:34:47.980Z,101301.19
2022-12-17T04:36:49.956Z,101325.91
2022-12-17T04:38:51.645Z,101302.25
2022-12-17T04:40:53.327Z,101305.53
2022-12-17T04:42:55.231Z,101329.94
2022-12-17T04:44:56.931Z,101320.19
2022-12-17T04:46:58.662Z,101337.31
2022-12-17T04:49:00.617Z,101338.09
2022-12-17T04:51:02.316Z,101324.50
2022-12-17T04:53:06.075Z,101341.53
2022-12-17T04:55:08.106Z,101325.34
2022-12-17T04:57:09.858Z,101371.94
2022-12-17T04:59:11.536Z,101321.75
2022-12-17T05:01:13.634Z,101311.72
2022-12-17T05:03:16.869Z,101347.66
2022-12-17T05:05:18.631Z,101374.63
2022-12-17T05:07:20.512Z,101375.63
2022-12-17T05:09:22.195Z,101368.00
2022-12-17T05:11:24.008Z,101350.13
2022-12-17T05:13:26.151Z,101386.66
2022-12-17T05:15:27.858Z,101387.56
2022-12-17T05:17:29.891Z,101386.66
2022-12-17T05:19:31.657Z,101390.88
2022-12-17T05:21:33.713Z,101400.22
2022-12-17T05:23:36.074Z,101388.25
2022-12-17T05:25:38.079Z,101351.00
2022-12-17T05:27:39.813Z,101397.72
2022-12-17T05:29:41.584Z,101385.00
2022-12-17T05:31:43.377Z,101423.91
2022-12-17T05:33:45.174Z,101400.81
2022-12-17T05:35:47.122Z,101423.63
2022-12-17T05:37:48.978Z,101392.97
2022-12-17T05:39:50.641Z,101409.19
2022-12-17T05:41:52.463Z,101427.38
2022-12-17T05:43:54.264Z,101437.53
2022-12-17T05:45:55.963Z,101425.50
2022-12-17T05:47:58.775Z,101436.63
2022-12-17T05:50:00.911Z,101410.63
2022-12-17T05:52:02.616Z,101432.06
2022-12-17T05:54:04.571Z,101388.56
2022-12-17T05:56:06.676Z,101419.34
2022-12-17T05:58:11.077Z,101385.84
2022-12-17T06:00:13.301Z,101416.13
2022-12-17T06:02:15.159Z,101409.34
2022-12-17T06:04:16.900Z,101422.50
2022-12-17T06:06:18.842Z,101422.38
2022-12-17T06:08:20.527Z,101435.44
2022-12-17T06:10:22.241Z,101425.97
2022-12-17T06:12:23.942Z,101434.53
2022-12-17T06:14:25.710Z,101433.63
2022-12-17T06:16:27.472Z,101408.00
2022-12-17T06:18:29.409Z,101450.47
2022-12-17T06:20:31.189Z,101445.25
2022-12-17T06:22:32.886Z,101441.72
2022-12-17T06:24:34.728Z,101459.59
2022-12-17T06:26:36.476Z,101436.56
2022-12-17T06:28:38.179Z,101462.31
2022-12-17T06:30:40.005Z,101437.53
2022-12-17T06:32:41.835Z,101466.75
2022-12-17T06:34:43.543Z,101463.97
2022-12-17T06:36:45.822Z,101445.19
2022-12-17T06:38:47.704Z,101448.59
2022-12-17T06:40:49.856Z,101469.47
2022-12-17T06:42:57.640Z,101449.75
2022-12-17T06:44:59.647Z,101432.78
2022-12-17T06:47:01.360Z,101471.16
2022-12-17T06:49:03.365Z,101453.91
2022-12-17T06:51:05.335Z,101447.88
2022-12-17T06:53:07.896Z,101461.50
2022-12-17T06:55:09.718Z,101482.06
2022-12-17T06:57:11.643Z,101461.63
2022-12-17T06:59:13.335Z,101460.94
2022-12-17T07:01:15.296Z,101474.72
2022-12-17T07:03:17.233Z,101487.59
2022-12-17T07:05:18.983Z,101467.97
2022-12-17T07:07:20.675Z,101457.97
2022-12-17T07:09:22.438Z,101492.91
2022-12-17T07:11:24.571Z,101479.31
2022-12-17T07:13:26.264Z,101490.19
2022-12-17T07:15:27.985Z,101492.00
2022-12-17T07:17:29.696Z,101500.66
2022-12-17T07:19:31.583Z,101486.00
2022-12-17T07:21:33.376Z,101492.00
2022-12-17T07:23:35.286Z,101424.75
2022-12-17T07:25:41.557Z,101508.25
2022-12-17T07:27:56.448Z,101486.25
2022-12-17T07:29:58.160Z,101516.84
2022-12-17T07:32:00.284Z,101521.78
2022-12-17T07:34:02.137Z,101527.19
2022-12-17T07:36:04.129Z,101532.03
2022-12-17T07:38:06.060Z,101519.97
2022-12-17T07:40:08.443Z,101506.34
2022-12-17T07:42:10.205Z,101527.72
2022-12-17T07:44:12.156Z,101500.66
2022-12-17T07:46:14.206Z,101509.19
2022-12-17T07:48:16.032Z,101486.31
2022-12-17T07:50:17.949Z,101530.78
2022-12-17T07:52:19.675Z,101546.81
2022-12-17T07:54:21.370Z,101552.56
2022-12-17T07:56:23.154Z,101550.19
2022-12-17T07:58:24.886Z,101554.56
2022-12-17T08:00:26.689Z,101552.00
2022-12-17T08:02:28.582Z,101546.81
2022-12-17T08:04:30.444Z,101525.56
2022-12-17T08:06:32.150Z,101561.38
2022-12-17T08:08:33.965Z,101569.19
2022-12-17T08:10:36.019Z,101538.66
2022-12-17T08:12:37.696Z,101565.75
2022-12-17T08:14:40.342Z,101567.50
2022-12-17T08:16:42.159Z,101572.66
2022-12-17T08:18:44.005Z,101571.03
2022-12-17T08:20:45.706Z,101580.41
2022-12-17T08:22:47.460Z,101582.88
2022-12-17T08:24:49.132Z,101578.34
2022-12-17T08:26:51.060Z,101578.34
2022-12-17T08:28:52.896Z,101598.97
2022-12-17T08:30:54.713Z,101558.69
2022-12-17T08:32:56.682Z,101595.53
2022-12-17T08:34:58.400Z,101550.19
2022-12-17T08:37:00.146Z,101593.81
2022-12-17T08:39:02.051Z,101582.88
2022-12-17T08:41:04.002Z,101597.28
2022-12-17T08:43:05.881Z,101593.94
2022-12-17T08:45:08.021Z,101599.66
2022-12-17T08:47:10.457Z,101610.69
2022-12-17T08:49:12.220Z,101595.22
2022-12-17T08:51:13.892Z,101624.28
2022-12-17T08:53:15.715Z,101616.88
2022-12-17T08:55:17.429Z,101597.91
2022-12-17T08:57:30.689Z,101621.03
2022-12-17T08:59:33.091Z,101602.53
2022-12-17T09:01:34.888Z,101606.91
2022-12-17T09:03:37.151Z,101587.84
2022-12-17T09:05:39.163Z,101619.47
2022-12-17T09:07:40.854Z,101604.06
2022-12-17T09:09:42.775Z,101621.16
2022-12-17T09:11:44.666Z,101586.84
2022-12-17T09:13:46.505Z,101600.81
2022-12-17T09:15:54.972Z,101569.78
2022-12-17T09:17:57.494Z,101599.09
2022-12-17T09:19:59.260Z,101604.16
2022-12-17T09:22:01.323Z,101590.38
2022-12-17T09:24:03.107Z,101585.34
2022-12-17T09:26:05.072Z,101617.81
2022-12-17T09:28:07.132Z,101606.63
2022-12-17T09:30:09.458Z,101609.22
2022-12-17T09:32:11.124Z,101591.25
2022-12-17T09:34:13.088Z,101612.66
2022-12-17T09:36:14.792Z,101611.06
2022-12-17T09:38:17.026Z,101608.34
2022-12-17T09:40:23.363Z,101592.94
2022-12-17T09:42:59.570Z,101625.47
2022-12-17T09:45:14.626Z,101594.59
2022-12-17T09:47:34.738Z,101621.66
2022-12-17T09:49:37.870Z,101606.78
2022-12-17T09:51:39.615Z,101628.13
2022-12-17T09:53:50.435Z,101634.81
2022-12-17T09:55:53.119Z,101623.84
2022-12-17T09:57:55.065Z,101627.16
2022-12-17T09:59:57.199Z,101585.22
2022-12-17T10:01:58.976Z,101603.06
2022-12-17T10:04:01.794Z,101602.78
2022-12-17T10:06:22.386Z,101636.19
2022-12-17T10:08:24.400Z,101622.53
2022-12-17T10:10:30.208Z,101661.28
2022-12-17T10:12:32.345Z,101627.84
2022-12-17T10:14:34.010Z,101645.69
2022-12-17T10:16:46.049Z,101656.88
2022-12-17T10:18:49.903Z,101665.47
2022-12-17T10:21:01.213Z,101663.34
2022-12-17T10:23:02.919Z,101661.97
2022-12-17T10:25:22.089Z,101658.41
2022-12-17T10:27:23.808Z,101640.59
2022-12-17T10:29:26.430Z,101655.66
2022-12-17T10:31:30.837Z,101665.09
2022-12-17T10:33:38.435Z,101664.38
2022-12-17T10:35:40.810Z,101671.19
2022-12-17T10:37:42.820Z,101670.38
2022-12-17T10:39:54.036Z,101649.63
2022-12-17T10:41:55.772Z,101648.59
2022-12-17T10:43:57.608Z,101662.91
2022-12-17T10:45:59.384Z,101678.88
2022-12-17T10:48:01.169Z,101681.38
2022-12-17T10:50:09.546Z,101668.63
2022-12-17T10:52:30.781Z,101688.44
2022-12-17T10:54:34.034Z,101690.09
2022-12-17T10:56:36.006Z,101666.09
2022-12-17T10:58:44.608Z,101682.78
2022-12-17T11:00:50.596Z,101690.34
2022-12-17T11:02:52.984Z,101663.13
2022-12-17T11:04:54.851Z,101690.34
2022-12-17T11:06:57.476Z,101691.69
2022-12-17T11:09:02.148Z,101668.75
2022-12-17T11:11:07.904Z,101700.97
2022-12-17T11:13:15.676Z,101699.41
2022-12-17T11:15:19.568Z,101680.63
2022-12-17T11:17:23.097Z,101669.41
2022-12-17T11:19:43.039Z,101697.69
2022-12-17T11:21:58.057Z,101696.19
2022-12-17T11:24:01.933Z,101698.94
2022-12-17T11:26:09.285Z,101702.16
2022-12-17T11:28:18.355Z,101662.34
2022-12-17T11:30:22.383Z,101700.75
2022-12-17T11:32:26.737Z,101709.34
2022-12-17T11:34:58.010Z,101726.28
2022-12-17T11:37:08.046Z,101717.66
2022-12-17T11:39:12.779Z,101727.00
2022-12-17T11:41:23.346Z,101720.97
2022-12-17T11:43:37.638Z,101722.22
2022-12-17T11:46:17.505Z,101732.16
2022-12-17T11:48:25.209Z,101731.34
2022-12-17T11:50:33.303Z,101729.56
2022-12-17T11:52:54.364Z,101731.59
2022-12-17T11:55:28.391Z,101689.81
2022-12-17T11:57:39.137Z,101732.53
2022-12-17T11:59:52.911Z,101727.53
2022-12-17T12:02:02.649Z,101731.84
2022-12-17T12:04:16.619Z,101736.16
2022-12-17T12:06:28.055Z,101728.53
2022-12-17T12:09:14.647Z,101746.31
2022-12-17T12:11:35.411Z,101748.16
2022-12-17T12:14:08.167Z,101751.47
2022-12-17T12:16:28.593Z,101749.84
2022-12-17T12:18:36.567Z,101748.09
2022-12-17T12:20:53.562Z,101756.00
2022-12-17T12:23:06.131Z,101727.84
2022-12-17T12:25:38.889Z,101757.66
2022-12-17T12:27:51.876Z,101761.88
2022-12-17T12:29:56.498Z,101762.69
2022-12-17T12:32:13.107Z,101747.75
2022-12-17T12:34:21.399Z,101749.44
2022-12-17T12:36:26.584Z,101772.50
2022-12-17T12:38:34.916Z,101776.59
2022-12-17T12:40:49.277Z,101766.22
2022-12-17T12:43:09.400Z,101763.41
2022-12-17T12:45:37.886Z,101776.31
2022-12-17T12:47:51.398Z,101773.00
2022-12-17T12:50:23.029Z,101764.50
2022-12-17T12:52:27.686Z,101767.31
2022-12-17T12:54:40.860Z,101773.94
2022-12-17T12:56:42.835Z,101763.53
2022-12-17T12:58:44.690Z,101773.19
2022-12-17T13:00:49.690Z,101786.19
2022-12-17T13:02:51.831Z,101789.78
2022-12-17T13:04:54.255Z,101769.28
2022-12-17T13:06:57.214Z,101800.06
2022-12-17T13:09:32.337Z,101799.81
2022-12-17T13:11:39.148Z,101799.13
2022-12-17T13:13:46.145Z,101793.72
2022-12-17T13:15:52.033Z,101801.41
2022-12-17T13:18:16.420Z,101778.31
2022-12-17T13:20:31.715Z,101805.13
2022-12-17T13:22:33.773Z,101771.72
2022-12-17T13:24:35.731Z,101803.22
2022-12-17T13:26:40.398Z,101804.06
2022-12-17T13:28:44.556Z,101788.69
2022-12-17T13:30:46.455Z,101805.06
2022-12-17T13:33:01.986Z,101812.06
2022-12-17T13:35:35.198Z,101807.81
2022-12-17T13:37:59.645Z,101817.38
2022-12-17T13:40:27.580Z,101761.88
2022-12-17T13:42:33.392Z,101802.94
2022-12-17T13:44:41.224Z,101799.59
2022-12-17T13:46:47.680Z,101804.72
2022-12-17T13:49:00.851Z,101828.53
2022-12-17T13:51:05.647Z,101825.84
2022-12-17T13:53:12.348Z,101815.59
2022-12-17T13:55:26.015Z,101831.09
2022-12-17T13:57:27.686Z,101812.09
2022-12-17T13:59:29.846Z,101806.06
2022-12-17T14:01:32.727Z,101836.13
2022-12-17T14:04:04.586Z,101834.63
2022-12-17T14:05:57.569Z,101829.47
2022-12-17T14:08:02.603Z,101834.72
2022-12-17T14:10:06.124Z,101827.81
2022-12-17T14:12:11.951Z,101841.56
2022-12-17T14:14:37.741Z,101830.47
2022-12-17T14:16:43.814Z,101839.88
2022-12-17T14:18:56.951Z,101815.19
2022-12-17T14:20:59.073Z,101838.28
2022-12-17T14:23:04.902Z,101840.84
2022-12-17T14:25:16.120Z,101851.97
2022-12-17T14:27:24.943Z,101852.81
2022-12-17T14:29:31.474Z,101825.38
2022-12-17T14:31:33.365Z,101870.78
2022-12-17T14:33:37.563Z,101863.03
2022-12-17T14:35:40.275Z,101869.94
2022-12-17T14:37:48.860Z,101872.53
2022-12-17T14:39:53.049Z,101869.13
2022-12-17T14:42:06.855Z,101874.28
2022-12-17T14:44:21.267Z,101882.94
2022-12-17T14:46:23.681Z,101888.94
2022-12-17T14:48:26.497Z,101879.41
2022-12-17T14:50:34.633Z,101886.16
2022-12-17T14:52:44.283Z,101892.16
2022-12-17T14:54:46.321Z,101887.03
2022-12-17T14:56:49.760Z,101897.25
2022-12-17T14:58:51.283Z,101910.06
2022-12-17T15:01:04.925Z,101895.56
2022-12-17T15:03:11.705Z,101875.00
2022-12-17T15:05:16.960Z,101874.19
2022-12-17T15:07:24.962Z,101898.94
2022-12-17T15:09:26.642Z,101886.16
2022-12-17T15:11:28.718Z,101916.06
2022-12-17T15:13:30.451Z,101897.19
2022-12-17T15:15:32.189Z,101894.63
2022-12-17T15:17:34.277Z,101924.56
2022-12-17T15:19:36.027Z,101918.59
2022-12-17T15:21:38.136Z,101903.16
2022-12-17T15:23:44.628Z,101911.50
2022-12-17T15:25:49.192Z,101913.31
2022-12-17T15:27:51.111Z,101917.53
2022-12-17T15:29:52.928Z,101920.91
2022-12-17T15:31:54.878Z,101890.06
2022-12-17T15:33:57.953Z,101872.16
2022-12-17T15:35:59.890Z,101913.22
2022-12-17T15:38:02.282Z,101925.19
2022-12-17T15:40:06.402Z,101896.06
2022-12-17T15:42:09.649Z,101933.75
2022-12-17T15:44:11.429Z,101913.13
2022-12-17T15:46:13.531Z,101905.31
2022-12-17T15:48:18.241Z,101931.94
2022-12-17T15:50:20.122Z,101936.16
2022-12-17T15:52:21.998Z,101932.81
2022-12-17T15:54:23.742Z,101931.84
2022-12-17T15:56:27.741Z,101939.50
2022-12-17T15:58:30.277Z,101931.84
2022-12-17T16:00:32.518Z,101945.41
2022-12-17T16:02:34.541Z,101919.69
2022-12-17T16:04:37.060Z,101941.16
2022-12-17T16:06:40.147Z,101949.56
2022-12-17T16:08:41.892Z,101951.34
2022-12-17T16:10:44.088Z,101944.34
2022-12-17T16:12:47.109Z,101946.22
2022-12-17T16:14:49.487Z,101923.13
2022-12-17T16:16:51.523Z,101950.50
2022-12-17T16:18:53.286Z,101941.91
2022-12-17T16:20:55.137Z,101953.88
2022-12-17T16:22:57.126Z,101954.72
2022-12-17T16:24:59.069Z,101958.91
2022-12-17T16:27:04.302Z,101964.13
2022-12-17T16:29:06.898Z,101956.53
2022-12-17T16:31:11.440Z,101961.34
2022-12-17T16:33:13.318Z,101948.59
2022-12-17T16:35:15.377Z,101902.44
2022-12-17T16:37:17.066Z,101939.09
2022-12-17T16:39:19.757Z,101962.19
2022-12-17T16:41:22.532Z,101965.50
2022-12-17T16:43:25.470Z,101941.56
2022-12-17T16:45:27.230Z,101966.31
2022-12-17T16:47:29.268Z,101929.28
2022-12-17T16:49:30.975Z,101972.19
2022-12-17T16:51:35.782Z,101962.50
2022-12-17T16:53:37.555Z,101965.13
2022-12-17T16:55:44.009Z,101961.63
2022-12-17T16:57:46.988Z,101970.13
2022-12-17T16:59:48.852Z,101969.13
2022-12-17T17:01:52.023Z,101964.97
2022-12-17T17:03:55.188Z,101972.69
2022-12-17T17:06:00.716Z,101975.88
2022-12-17T17:08:02.787Z,101982.81
2022-12-17T17:10:04.781Z,101989.00
2022-12-17T17:12:06.921Z,101966.56
2022-12-17T17:14:09.076Z,101989.88
2022-12-17T17:16:11.382Z,101990.44
2022-12-17T17:18:13.647Z,101976.06
2022-12-17T17:20:16.343Z,101970.97
2022-12-17T17:22:18.579Z,101989.88
2022-12-17T17:24:22.414Z,102006.84
2022-12-17T17:26:24.529Z,102001.84
2022-12-17T17:28:26.274Z,102011.97
2022-12-17T17:30:28.172Z,101995.69
2022-12-17T17:32:30.037Z,101993.19
2022-12-17T17:34:31.839Z,102006.03
2022-12-17T17:36:34.207Z,101983.81
2022-12-17T17:38:38.554Z,102009.34
2022-12-17T17:40:41.702Z,102019.69
2022-12-17T17:42:46.155Z,102017.22
2022-12-17T17:44:54.234Z,101998.22
2022-12-17T17:46:56.061Z,102021.06
2022-12-17T17:48:59.427Z,102025.50
2022-12-17T17:51:09.189Z,102027.94
2022-12-17T17:53:10.927Z,102020.16
2022-12-17T17:55:12.870Z,102025.34
2022-12-17T17:57:14.659Z,102026.81
2022-12-17T17:59:18.259Z,102031.13
2022-12-17T18:01:25.972Z,102032.28
2022-12-17T18:03:29.601Z,102034.75
2022-12-17T18:05:31.431Z,101973.22
2022-12-17T18:07:33.524Z,102041.50
2022-12-17T18:09:35.450Z,102037.97
2022-12-17T18:11:38.897Z,102051.63
2022-12-17T18:13:41.110Z,102048.06
2022-12-17T18:15:42.971Z,102039.50
2022-12-17T18:17:46.973Z,102064.53
2022-12-17T18:19:48.858Z,102068.75
2022-12-17T18:21:50.703Z,102058.66
2022-12-17T18:24:04.334Z,102042.47
2022-12-17T18:26:18.177Z,102057.69
2022-12-17T18:28:19.959Z,102080.09
2022-12-17T18:30:21.756Z,102068.66
2022-12-17T18:32:23.671Z,102073.19
2022-12-17T18:34:25.794Z,102034.63
2022-12-17T18:36:30.586Z,102080.94
2022-12-17T18:38:32.953Z,102072.97
2022-12-17T18:40:35.848Z,102080.56
2022-12-17T18:42:37.510Z,102084.22
2022-12-17T18:44:41.926Z,102082.47
2022-12-17T18:46:43.949Z,102057.69
2022-12-17T18:48:45.776Z,102080.75
2022-12-17T18:50:47.484Z,102085.78
2022-12-17T18:52:49.250Z,102070.22
2022-12-17T18:54:50.952Z,102097.72
2022-12-17T18:57:00.820Z,102076.50
2022-12-17T18:59:03.640Z,102095.28
2022-12-17T19:01:06.378Z,102092.84
2022-12-17T19:03:08.461Z,102095.38
2022-12-17T19:05:10.337Z,102102.91
2022-12-17T19:07:12.103Z,102109.81
2022-12-17T19:09:24.321Z,102116.72
2022-12-17T19:11:26.510Z,102082.34
2022-12-17T19:13:28.299Z,102123.53
2022-12-17T19:15:30.176Z,102115.63
2022-12-17T19:17:31.871Z,102116.47
2022-12-17T19:19:34.145Z,102105.44
2022-12-17T19:21:35.996Z,102127.56
2022-12-17T19:23:37.762Z,102118.06
2022-12-17T19:25:40.054Z,102079.69
2022-12-17T19:27:41.773Z,102097.44
2022-12-17T19:29:49.011Z,102088.00
2022-12-17T19:31:51.753Z,102075.94
2022-12-17T19:33:58.759Z,102118.00
2022-12-17T19:36:03.270Z,102115.31
2022-12-17T19:38:05.141Z,102119.44
2022-12-17T19:40:07.587Z,102104.31
2022-12-17T19:42:09.254Z,102124.97
2022-12-17T19:44:15.748Z,102125.88
2022-12-17T19:46:18.996Z,102111.44
2022-12-17T19:48:20.782Z,102125.00
2022-12-17T19:50:22.509Z,102132.78
2022-12-17T19:52:24.347Z,102128.59
2022-12-17T19:54:26.005Z,102088.47
2022-12-17T19:56:30.785Z,102139.94
2022-12-17T19:58:32.588Z,102121.09
2022-12-17T20:00:35.715Z,102138.34
2022-12-17T20:02:37.564Z,102120.34
2022-12-17T20:04:39.434Z,102147.94
2022-12-17T20:06:41.217Z,102125.75
2022-12-17T20:08:43.108Z,102132.47
2022-12-17T20:10:44.915Z,102117.16
2022-12-17T20:12:46.604Z,102152.09
2022-12-17T20:14:48.503Z,102129.88
2022-12-17T20:16:56.713Z,102158.97
2022-12-17T20:18:59.665Z,102146.88
2022-12-17T20:21:05.663Z,102163.28
2022-12-17T20:23:07.435Z,102159.00
2022-12-17T20:25:09.302Z,102178.06
2022-12-17T20:27:11.039Z,102166.91
2022-12-17T20:29:13.185Z,102170.16
2022-12-17T20:31:15.267Z,102170.81
2022-12-17T20:33:17.100Z,102177.88
2022-12-17T20:35:19.124Z,102188.28
2022-12-17T20:37:20.868Z,102181.44
2022-12-17T20:39:27.294Z,102183.78
2022-12-17T20:41:31.986Z,102189.94
2022-12-17T20:43:33.677Z,102191.53
2022-12-17T20:45:35.747Z,102194.09
2022-12-17T20:47:37.719Z,102176.06
2022-12-17T20:49:39.428Z,102194.91
2022-12-17T20:51:41.248Z,102201.09
2022-12-17T20:53:43.953Z,102201.97
2022-12-17T20:55:45.772Z,102169.22
2022-12-17T20:57:47.646Z,102188.97
2022-12-17T20:59:49.681Z,102183.69
2022-12-17T21:01:56.107Z,102185.50
2022-12-17T21:03:58.821Z,102215.50
2022-12-17T21:06:14.109Z,102217.22
2022-12-17T21:08:15.837Z,102193.38
2022-12-17T21:10:17.735Z,102197.78
2022-12-17T21:12:19.656Z,102220.03
2022-12-17T21:14:21.357Z,102204.72
2022-12-17T21:16:26.275Z,102224.34
2022-12-17T21:18:29.998Z,102222.63
2022-12-17T21:20:31.663Z,102232.22
2022-12-17T21:22:33.800Z,102207.28
2022-12-17T21:24:35.702Z,102182.44
2022-12-17T21:26:40.054Z,102236.47
2022-12-17T21:28:43.649Z,102241.59
2022-12-17T21:30:46.116Z,102236.63
2022-12-17T21:32:47.842Z,102235.88
2022-12-17T21:34:49.646Z,102247.97
2022-12-17T21:36:52.363Z,102254.06
2022-12-17T21:38:54.206Z,102194.03
2022-12-17T21:41:03.763Z,102241.06
2022-12-17T21:43:05.717Z,102242.94
2022-12-17T21:45:07.924Z,102246.47
2022-12-17T21:47:10.066Z,102222.63
2022-12-17T21:49:11.980Z,102254.31
2022-12-17T21:51:14.417Z,102239.06
2022-12-17T21:53:16.453Z,102266.38
2022-12-17T21:55:18.789Z,102253.56
2022-12-17T21:57:20.473Z,102267.25
2022-12-17T21:59:22.467Z,102270.94
2022-12-17T22:01:30.147Z,102263.28
2022-12-17T22:03:31.908Z,102262.66
2022-12-17T22:05:36.496Z,102273.03
2022-12-17T22:07:47.971Z,102288.59
2022-12-17T22:10:38.842Z,102273.94
2022-12-17T22:12:12.701Z,102275.81
2022-12-17T22:14:20.670Z,102277.53
2022-12-17T22:16:22.983Z,102289.53
2022-12-17T22:18:24.710Z,102273.13
2022-12-17T22:20:26.580Z,102291.16
2022-12-17T22:22:28.796Z,102269.81
2022-12-17T22:24:36.067Z,102237.25
2022-12-17T22:26:38.427Z,102270.00
2022-12-17T22:28:40.611Z,102286.38
2022-12-17T22:30:42.719Z,102297.53
2022-12-17T22:32:45.526Z,102283.91
2022-12-17T22:35:52.756Z,102296.00
2022-12-17T22:38:56.727Z,102323.56
2022-12-17T22:44:28.973Z,102305.47
2022-12-17T22:44:36.806Z,102299.59
2022-12-17T22:44:37.337Z,102323.47
2022-12-17T22:46:37.231Z,102322.84
2022-12-17T22:48:38.958Z,102314.44
2022-12-17T22:50:44.726Z,102329.88
2022-12-17T22:53:04.803Z,102324.75
2022-12-17T22:55:07.638Z,102337.63
2022-12-17T22:57:35.903Z,102314.56
2022-12-17T22:59:31.730Z,102318.78
2022-12-17T23:01:33.783Z,102332.34
2022-12-17T23:03:35.780Z,102340.06
2022-12-17T23:05:37.649Z,102335.06
2022-12-17T23:07:39.380Z,102329.00
2022-12-17T23:09:41.307Z,102320.66
2022-12-17T23:11:43.126Z,102324.97
2022-12-17T23:13:45.649Z,102347.19
2022-12-17T23:15:47.427Z,102353.19
2022-12-17T23:17:49.903Z,102354.88
2022-12-17T23:19:51.605Z,102360.91
2022-12-17T23:21:53.453Z,102326.50
2022-12-17T23:23:56.477Z,102335.09
2022-12-17T23:25:58.328Z,102340.28
2022-12-17T23:28:00.183Z,102339.34
2022-12-17T23:30:02.080Z,102334.19
2022-12-17T23:32:03.971Z,102347.03
2022-12-17T23:34:06.221Z,102336.00
2022-12-17T23:36:13.967Z,102384.03
2022-12-17T23:38:15.740Z,102350.34
2022-12-17T23:40:17.553Z,102379.72
2022-12-17T23:42:19.471Z,102386.63